createdAt,value
2022-12-04T00:01:24.847Z,26.23
2022-12-04T00:03:58.263Z,23.30
2022-12-04T00:06:27.023Z,22.95
2022-12-04T00:08:55.182Z,26.45
2022-12-04T00:11:26.023Z,23.50
2022-12-04T00:13:54.121Z,22.95
2022-12-04T00:16:24.918Z,22.30
2022-12-04T00:18:53.163Z,25.65
2022-12-04T00:21:21.156Z,22.30
2022-12-04T00:23:49.601Z,20.25
2022-12-04T00:26:22.998Z,24.08
2022-12-04T00:28:51.092Z,20.90
2022-12-04T00:31:22.064Z,22.95
2022-12-04T00:33:49.524Z,26.08
2022-12-04T00:36:19.687Z,26.48
2022-12-04T00:38:47.143Z,25.80
2022-12-04T00:41:21.322Z,21.33
2022-12-04T00:43:48.835Z,18.25
2022-12-04T00:46:16.892Z,20.85
2022-12-04T00:48:44.624Z,21.95
2022-12-04T00:51:16.397Z,23.58
2022-12-04T00:53:44.054Z,24.80
2022-12-04T00:56:18.828Z,20.55
2022-12-04T00:58:46.722Z,26.20
2022-12-04T01:01:17.605Z,23.60
2022-12-04T01:03:45.990Z,22.50
2022-12-04T01:06:23.329Z,23.40
2022-12-04T01:08:52.390Z,23.48
2022-12-04T01:11:22.068Z,22.10
2022-12-04T01:13:49.739Z,24.83
2022-12-04T01:16:27.418Z,23.60
2022-12-04T01:18:55.088Z,25.07
2022-12-04T01:21:23.028Z,23.85
2022-12-04T01:23:50.389Z,22.80
2022-12-04T01:26:17.878Z,24.42
2022-12-04T01:28:45.227Z,20.33
2022-12-04T01:31:16.130Z,24.73
2022-12-04T01:33:44.546Z,29.45
2022-12-04T01:36:17.370Z,22.60
2022-12-04T01:38:45.691Z,21.65
2022-12-04T01:41:15.039Z,23.35
2022-12-04T01:43:42.827Z,26.07
2022-12-04T01:46:11.317Z,23.27
2022-12-04T01:48:50.819Z,25.33
2022-12-04T01:51:35.979Z,23.92
2022-12-04T01:54:07.797Z,23.20
2022-12-04T01:56:50.290Z,24.03
2022-12-04T01:59:22.632Z,21.08
2022-12-04T02:02:11.718Z,24.13
2022-12-04T02:04:41.526Z,20.58
2022-12-04T02:07:09.681Z,23.85
2022-12-04T02:09:39.785Z,18.53
2022-12-04T02:12:21.561Z,22.92
2022-12-04T02:15:28.579Z,22.85
2022-12-04T02:18:10.773Z,21.23
2022-12-04T02:20:46.728Z,24.63
2022-12-04T02:23:30.023Z,20.17
2022-12-04T02:26:33.764Z,22.55
2022-12-04T02:29:24.169Z,22.25
2022-12-04T02:31:54.677Z,25.10
2022-12-04T02:34:35.374Z,22.58
2022-12-04T02:37:31.907Z,23.47
2022-12-04T02:40:17.433Z,22.98
2022-12-04T02:43:07.573Z,24.55
2022-12-04T02:45:43.388Z,25.88
2022-12-04T02:48:15.567Z,25.30
2022-12-04T02:50:43.063Z,25.80
2022-12-04T02:53:21.195Z,22.58
2022-12-04T02:58:34.443Z,26.20
2022-12-04T03:01:21.134Z,21.67
2022-12-04T03:04:00.415Z,28.43
2022-12-04T03:06:31.647Z,24.50
2022-12-04T03:09:24.337Z,26.38
2022-12-04T03:12:01.316Z,27.50
2022-12-04T03:14:35.465Z,26.42
2022-12-04T03:17:09.287Z,27.90
2022-12-04T03:20:00.258Z,28.52
2022-12-04T03:22:30.012Z,29.67
2022-12-04T03:24:57.923Z,29.40
2022-12-04T03:27:46.257Z,27.90
2022-12-04T03:30:19.264Z,28.43
2022-12-04T03:33:11.214Z,25.52
2022-12-04T03:36:21.418Z,27.70
2022-12-04T03:38:52.001Z,26.77
2022-12-04T03:41:32.726Z,25.48
2022-12-04T03:44:13.943Z,29.17
2022-12-04T03:47:10.233Z,32.17
2022-12-04T03:49:43.281Z,30.30
2022-12-04T03:52:37.105Z,28.00
2022-12-04T03:55:44.169Z,28.83
2022-12-04T03:58:19.243Z,29.73
2022-12-04T04:00:48.267Z,30.65
2022-12-04T04:03:38.307Z,28.38
2022-12-04T04:06:11.723Z,27.60
2022-12-04T04:08:43.824Z,30.73
2022-12-04T04:11:18.597Z,28.40
2022-12-04T04:14:20.050Z,29.90
2022-12-04T04:17:12.977Z,34.03
2022-12-04T04:20:02.355Z,30.70
2022-12-04T04:23:08.196Z,33.03
2022-12-04T04:25:40.756Z,34.93
2022-12-04T04:28:32.621Z,33.45
2022-12-04T04:31:34.744Z,37.15
2022-12-04T04:34:25.170Z,27.27
2022-12-04T04:37:15.735Z,33.95
2022-12-04T04:39:56.984Z,30.27
2022-12-04T04:42:34.648Z,31.15
2022-12-04T04:45:33.906Z,31.27
2022-12-04T04:48:10.226Z,29.38
2022-12-04T04:50:39.655Z,29.83
2022-12-04T04:53:12.458Z,30.50
2022-12-04T04:55:40.639Z,31.48
2022-12-04T04:58:11.223Z,34.55
2022-12-04T05:00:40.062Z,34.38
2022-12-04T05:03:07.934Z,35.72
2022-12-04T05:05:35.418Z,33.13
2022-12-04T05:08:02.771Z,35.35
2022-12-04T05:10:30.189Z,33.17
2022-12-04T05:12:57.487Z,31.17
2022-12-04T05:15:24.948Z,29.20
2022-12-04T05:17:52.245Z,28.33
2022-12-04T05:20:19.678Z,29.23
2022-12-04T05:22:47.175Z,31.13
2022-12-04T05:25:14.787Z,32.88
2022-12-04T05:27:42.334Z,33.60
2022-12-04T05:30:12.012Z,32.90
2022-12-04T05:32:39.370Z,36.92
2022-12-04T05:35:11.116Z,37.28
2022-12-04T05:37:40.776Z,35.55
2022-12-04T05:40:09.367Z,32.65
2022-12-04T05:42:36.891Z,31.97
2022-12-04T05:45:04.566Z,33.80
2022-12-04T05:47:31.886Z,32.15
2022-12-04T05:49:59.375Z,36.15
2022-12-04T05:52:26.876Z,34.65
2022-12-04T05:54:54.246Z,33.37
2022-12-04T05:57:25.239Z,35.60
2022-12-04T05:59:53.322Z,35.55
2022-12-04T06:02:21.224Z,35.72
2022-12-04T06:04:49.081Z,28.02
2022-12-04T06:07:16.522Z,29.43
2022-12-04T06:09:44.119Z,31.27
2022-12-04T06:12:11.605Z,32.05
2022-12-04T06:14:39.980Z,33.08
2022-12-04T06:17:07.930Z,31.30
2022-12-04T06:19:35.363Z,29.67
2022-12-04T06:22:02.924Z,33.28
2022-12-04T06:24:30.326Z,33.38
2022-12-04T06:29:47.103Z,33.75
2022-12-04T06:32:19.709Z,32.50
2022-12-04T06:34:53.573Z,34.88
2022-12-04T06:37:25.439Z,33.30
2022-12-04T06:39:53.048Z,35.40
2022-12-04T06:42:20.799Z,31.42
2022-12-04T06:44:49.156Z,33.40
2022-12-04T06:47:16.644Z,33.83
2022-12-04T06:49:46.291Z,38.08
2022-12-04T06:52:14.875Z,33.35
2022-12-04T06:54:42.637Z,32.45
2022-12-04T06:57:10.116Z,31.37
2022-12-04T06:59:37.516Z,33.67
2022-12-04T07:02:05.200Z,32.35
2022-12-04T07:04:32.798Z,35.63
2022-12-04T07:07:00.377Z,35.40
2022-12-04T07:09:28.002Z,30.97
2022-12-04T07:11:55.521Z,30.92
2022-12-04T07:14:22.928Z,29.75
2022-12-04T07:16:50.907Z,28.92
2022-12-04T07:19:18.427Z,33.15
2022-12-04T07:21:45.960Z,30.37
2022-12-04T07:24:17.922Z,30.05
2022-12-04T07:26:46.037Z,28.13
2022-12-04T07:29:13.843Z,33.38
2022-12-04T07:31:41.546Z,33.42
2022-12-04T07:34:09.421Z,29.27
2022-12-04T07:36:37.039Z,26.55
2022-12-04T07:39:04.522Z,101.60
2022-12-04T07:41:32.116Z,72.63
2022-12-04T07:43:59.650Z,42.35
2022-12-04T07:46:29.207Z,25.77
2022-12-04T07:48:57.999Z,23.77
2022-12-04T07:51:28.521Z,23.60
2022-12-04T07:54:02.868Z,23.80
2022-12-04T07:56:31.854Z,26.95
2022-12-04T07:59:00.694Z,25.07
2022-12-04T08:01:28.540Z,25.70
2022-12-04T08:03:58.064Z,27.65
2022-12-04T08:06:27.749Z,32.20
2022-12-04T08:08:55.265Z,27.60
2022-12-04T08:11:25.105Z,32.00
2022-12-04T08:13:57.707Z,27.27
2022-12-04T08:16:27.293Z,26.63
2022-12-04T08:18:55.600Z,28.83
2022-12-04T08:21:26.141Z,28.95
2022-12-04T08:23:55.585Z,31.03
2022-12-04T08:26:24.981Z,30.50
2022-12-04T08:28:56.942Z,26.25
2022-12-04T08:31:27.424Z,28.80
2022-12-04T08:33:57.506Z,29.40
2022-12-04T08:36:25.615Z,32.40
2022-12-04T08:38:53.427Z,29.58
2022-12-04T08:41:24.348Z,28.30
2022-12-04T08:43:55.037Z,27.77
2022-12-04T08:46:23.893Z,29.90
2022-12-04T08:48:51.581Z,32.67
2022-12-04T08:51:21.992Z,28.45
2022-12-04T08:53:52.896Z,32.13
2022-12-04T08:56:20.576Z,36.10
2022-12-04T08:58:48.658Z,34.22
2022-12-04T09:01:16.740Z,25.60
2022-12-04T09:03:45.204Z,26.67
2022-12-04T09:06:14.721Z,28.42
2022-12-04T09:08:43.550Z,30.33
2022-12-04T09:11:17.518Z,29.98
2022-12-04T09:13:46.306Z,30.27
2022-12-04T09:16:17.432Z,28.35
2022-12-04T09:18:46.065Z,29.17
2022-12-04T09:21:18.978Z,29.27
2022-12-04T09:23:47.659Z,29.90
2022-12-04T09:26:27.783Z,30.60
2022-12-04T09:28:56.862Z,26.92
2022-12-04T09:31:29.609Z,29.50
2022-12-04T09:34:00.346Z,31.58
2022-12-04T09:36:28.514Z,30.02
2022-12-04T09:38:57.983Z,26.17
2022-12-04T09:41:38.593Z,32.10
2022-12-04T09:44:33.052Z,30.70
2022-12-04T09:47:03.570Z,30.58
2022-12-04T09:49:48.666Z,28.48
2022-12-04T09:52:26.160Z,26.83
2022-12-04T09:54:54.366Z,28.48
2022-12-04T09:57:57.035Z,30.55
2022-12-04T10:00:28.768Z,33.00
2022-12-04T10:03:02.356Z,31.95
2022-12-04T10:05:54.723Z,31.07
2022-12-04T10:08:35.042Z,33.08
2022-12-04T10:11:32.278Z,29.95
2022-12-04T10:14:13.919Z,29.48
2022-12-04T10:17:03.600Z,31.65
2022-12-04T10:19:50.086Z,27.17
2022-12-04T10:22:26.632Z,30.42
2022-12-04T10:25:02.027Z,27.58
2022-12-04T10:27:56.118Z,29.83
2022-12-04T10:30:37.141Z,30.02
2022-12-04T10:33:21.043Z,32.23
2022-12-04T10:35:53.004Z,32.30
2022-12-04T10:38:42.530Z,31.08
2022-12-04T10:41:22.949Z,28.88
2022-12-04T10:43:51.790Z,33.15
2022-12-04T10:46:26.279Z,29.33
2022-12-04T10:49:04.153Z,30.58
2022-12-04T10:51:44.710Z,31.40
2022-12-04T10:54:20.541Z,31.05
2022-12-04T10:56:56.264Z,29.42
2022-12-04T10:59:25.477Z,29.57
2022-12-04T11:02:04.827Z,32.78
2022-12-04T11:04:36.176Z,32.83
2022-12-04T11:07:21.536Z,32.42
2022-12-04T11:10:01.901Z,28.33
2022-12-04T11:12:30.433Z,28.00
2022-12-04T11:15:16.896Z,32.92
2022-12-04T11:17:45.118Z,32.13
2022-12-04T11:20:25.298Z,30.17
2022-12-04T11:22:58.501Z,32.50
2022-12-04T11:25:30.767Z,31.47
2022-12-04T11:28:02.760Z,30.67
2022-12-04T11:30:39.423Z,28.05
2022-12-04T11:33:18.742Z,30.33
2022-12-04T11:35:55.742Z,30.52
2022-12-04T11:38:28.776Z,25.77
2022-12-04T11:40:59.465Z,34.20
2022-12-04T11:43:30.824Z,32.25
2022-12-04T11:46:04.505Z,31.73
2022-12-04T11:48:41.652Z,32.60
2022-12-04T11:51:30.171Z,32.00
2022-12-04T11:54:22.214Z,31.65
2022-12-04T11:57:16.144Z,28.33
2022-12-04T12:00:03.853Z,31.90
2022-12-04T12:02:49.984Z,33.53
2022-12-04T12:05:28.060Z,30.10
2022-12-04T12:08:30.840Z,29.70
2022-12-04T12:11:22.730Z,31.77
2022-12-04T12:13:59.632Z,30.80
2022-12-04T12:16:51.797Z,29.88
2022-12-04T12:19:49.224Z,31.40
2022-12-04T12:22:43.310Z,29.52
2022-12-04T12:25:28.374Z,27.48
2022-12-04T12:28:18.734Z,30.30
2022-12-04T12:31:27.490Z,31.05
2022-12-04T12:34:04.493Z,31.30
2022-12-04T12:36:41.364Z,33.95
2022-12-04T12:39:24.000Z,27.15
2022-12-04T12:41:56.154Z,32.55
2022-12-04T12:44:37.747Z,26.60
2022-12-04T12:47:20.053Z,32.47
2022-12-04T12:49:57.777Z,31.58
2022-12-04T12:52:40.043Z,29.77
2022-12-04T12:55:32.019Z,35.10
2022-12-04T12:58:12.869Z,27.30
2022-12-04T13:00:47.318Z,32.17
2022-12-04T13:03:25.193Z,27.98
2022-12-04T13:05:57.352Z,27.10
2022-12-04T13:08:46.366Z,29.42
2022-12-04T13:11:23.270Z,30.90
2022-12-04T13:14:01.349Z,31.10
2022-12-04T13:17:03.021Z,32.83
2022-12-04T13:19:35.592Z,32.45
2022-12-04T13:22:05.873Z,32.97
2022-12-04T13:25:13.228Z,30.95
2022-12-04T13:28:32.174Z,32.20
2022-12-04T13:31:41.062Z,34.22
2022-12-04T13:34:26.421Z,31.20
2022-12-04T13:37:12.541Z,31.95
2022-12-04T13:40:26.304Z,28.63
2022-12-04T13:43:05.038Z,31.87
2022-12-04T13:45:34.436Z,33.05
2022-12-04T13:48:04.096Z,29.13
2022-12-04T13:50:38.312Z,26.00
2022-12-04T13:53:07.071Z,27.83
2022-12-04T13:55:38.506Z,27.80
2022-12-04T13:58:13.808Z,30.80
2022-12-04T14:00:44.267Z,26.85
2022-12-04T14:03:36.845Z,32.55
2022-12-04T14:06:20.799Z,27.88
2022-12-04T14:08:48.844Z,26.67
2022-12-04T14:11:22.081Z,26.30
2022-12-04T14:13:52.747Z,26.67
2022-12-04T14:16:43.190Z,26.02
2022-12-04T14:19:46.587Z,26.40
2022-12-04T14:22:38.072Z,30.60
2022-12-04T14:25:34.868Z,26.75
2022-12-04T14:28:37.299Z,27.70
2022-12-04T14:31:09.056Z,28.40
2022-12-04T14:34:18.750Z,31.17
2022-12-04T14:36:49.316Z,28.20
2022-12-04T14:39:46.549Z,32.38
2022-12-04T14:42:18.871Z,25.17
2022-12-04T14:44:47.988Z,24.65
2022-12-04T14:47:43.866Z,30.20
2022-12-04T14:50:30.272Z,23.97
2022-12-04T14:53:35.955Z,25.33
2022-12-04T14:56:26.570Z,25.13
2022-12-04T14:58:58.147Z,23.75
2022-12-04T15:01:30.788Z,27.45
2022-12-04T15:04:03.986Z,29.37
2022-12-04T15:06:33.842Z,29.52
2022-12-04T15:09:22.949Z,27.15
2022-12-04T15:12:12.315Z,34.70
2022-12-04T15:14:50.752Z,43.90
2022-12-04T15:17:19.437Z,28.43
2022-12-04T15:19:47.076Z,31.30
2022-12-04T15:22:27.875Z,31.10
2022-12-04T15:24:56.098Z,32.78
2022-12-04T15:27:32.021Z,28.50
2022-12-04T15:30:03.891Z,31.10
2022-12-04T15:32:33.455Z,31.85
2022-12-04T15:35:06.991Z,34.17
2022-12-04T15:37:35.277Z,30.80
2022-12-04T15:40:07.898Z,31.40
2022-12-04T15:42:35.724Z,32.50
2022-12-04T15:45:21.962Z,29.67
2022-12-04T15:47:57.637Z,28.88
2022-12-04T15:50:28.147Z,28.42
2022-12-04T15:53:11.762Z,30.80
2022-12-04T15:55:52.095Z,33.00
2022-12-04T15:58:27.972Z,28.17
2022-12-04T16:00:59.617Z,30.35
2022-12-04T16:03:35.045Z,37.30
2022-12-04T16:06:05.223Z,37.03
2022-12-04T16:08:37.260Z,31.37
2022-12-04T16:11:08.989Z,38.97
2022-12-04T16:13:38.854Z,28.98
2022-12-04T16:16:15.926Z,32.80
2022-12-04T16:18:44.665Z,36.17
2022-12-04T16:21:21.365Z,31.00
2022-12-04T16:23:50.376Z,31.95
2022-12-04T16:26:20.165Z,30.70
2022-12-04T16:28:49.125Z,32.88
2022-12-04T16:31:18.856Z,27.55
2022-12-04T16:33:46.888Z,37.70
2022-12-04T16:36:14.858Z,35.80
2022-12-04T16:38:42.395Z,29.75
2022-12-04T16:41:18.320Z,26.38
2022-12-04T16:43:46.280Z,26.98
2022-12-04T16:46:16.751Z,30.93
2022-12-04T16:48:45.085Z,34.90
2022-12-04T16:51:25.745Z,30.25
2022-12-04T16:53:54.870Z,27.42
2022-12-04T16:56:22.550Z,35.38
2022-12-04T16:58:50.280Z,30.73
2022-12-04T17:01:22.268Z,31.05
2022-12-04T17:03:50.416Z,33.53
2022-12-04T17:06:20.415Z,28.27
2022-12-04T17:08:48.473Z,33.13
2022-12-04T17:11:18.043Z,30.60
2022-12-04T17:13:47.251Z,28.92
2022-12-04T17:16:19.637Z,27.58
2022-12-04T17:18:47.721Z,29.52
2022-12-04T17:21:15.298Z,29.77
2022-12-04T17:23:43.601Z,32.70
2022-12-04T17:26:15.608Z,33.50
2022-12-04T17:28:43.478Z,32.08
2022-12-04T17:31:25.861Z,31.95
2022-12-04T17:33:54.070Z,30.60
2022-12-04T17:36:25.350Z,27.90
2022-12-04T17:38:58.479Z,31.25
2022-12-04T17:41:26.862Z,33.78
2022-12-04T17:43:54.910Z,30.88
2022-12-04T17:46:24.810Z,33.53
2022-12-04T17:48:55.879Z,30.37
2022-12-04T17:51:25.946Z,32.88
2022-12-04T17:53:53.470Z,34.22
2022-12-04T17:56:23.476Z,38.47
2022-12-04T17:58:53.676Z,33.17
2022-12-04T18:01:26.114Z,34.27
2022-12-04T18:04:04.070Z,33.08
2022-12-04T18:06:36.355Z,34.95
2022-12-04T18:09:05.340Z,33.90
2022-12-04T18:11:35.890Z,36.28
2022-12-04T18:14:12.267Z,34.43
2022-12-04T18:16:48.367Z,36.90
2022-12-04T18:19:16.362Z,38.05
2022-12-04T18:21:44.123Z,38.50
2022-12-04T18:24:13.310Z,39.72
2022-12-04T18:26:45.720Z,33.73
2022-12-04T18:29:19.147Z,36.38
2022-12-04T18:31:48.201Z,35.13
2022-12-04T18:34:17.089Z,35.33
2022-12-04T18:36:48.953Z,37.03
2022-12-04T18:39:22.799Z,36.53
2022-12-04T18:41:50.951Z,33.42
2022-12-04T18:44:18.604Z,38.47
2022-12-04T18:46:46.586Z,35.15
2022-12-04T18:49:14.719Z,38.17
2022-12-04T18:51:49.699Z,41.70
2022-12-04T18:54:24.950Z,38.00
2022-12-04T18:56:54.956Z,40.42
2022-12-04T18:59:26.001Z,34.42
2022-12-04T19:01:55.828Z,41.47
2022-12-04T19:04:25.866Z,37.50
2022-12-04T19:06:56.336Z,35.80
2022-12-04T19:09:47.245Z,42.97
2022-12-04T19:12:14.073Z,40.95
2022-12-04T19:14:41.683Z,37.70
2022-12-04T19:17:09.381Z,34.03
2022-12-04T19:19:36.874Z,38.30
2022-12-04T19:22:04.797Z,36.65
2022-12-04T19:24:32.797Z,37.28
2022-12-04T19:27:02.127Z,40.28
2022-12-04T19:29:29.741Z,37.13
2022-12-04T19:31:59.489Z,35.83
2022-12-04T19:34:27.386Z,36.45
2022-12-04T19:36:55.824Z,45.22
2022-12-04T19:39:23.446Z,38.15
2022-12-04T19:41:51.057Z,36.13
2022-12-04T19:44:49.352Z,35.70
2022-12-04T19:47:06.407Z,34.85
2022-12-04T19:49:33.891Z,38.10
2022-12-04T19:52:01.561Z,38.95
2022-12-04T19:54:31.770Z,34.53
2022-12-04T19:56:59.326Z,34.78
2022-12-04T19:59:28.555Z,35.53
2022-12-04T20:01:59.594Z,38.70
2022-12-04T20:04:27.121Z,41.22
2022-12-04T20:06:54.657Z,33.00
2022-12-04T20:09:23.120Z,34.97
2022-12-04T20:11:50.659Z,39.80
2022-12-04T20:14:18.271Z,37.10
2022-12-04T20:16:46.685Z,39.10
2022-12-04T20:19:19.639Z,38.50
2022-12-04T20:21:47.868Z,40.65
2022-12-04T20:24:17.655Z,38.38
2022-12-04T20:26:46.421Z,38.20
2022-12-04T20:29:15.885Z,44.65
2022-12-04T20:31:46.325Z,41.03
2022-12-04T20:34:16.434Z,39.30
2022-12-04T20:36:46.233Z,42.78
2022-12-04T20:39:15.343Z,43.22
2022-12-04T20:41:43.370Z,41.40
2022-12-04T20:44:14.717Z,37.93
2022-12-04T20:46:43.031Z,42.33
2022-12-04T20:49:21.158Z,39.05
2022-12-04T20:51:49.899Z,39.35
2022-12-04T20:54:19.635Z,34.45
2022-12-04T20:56:49.319Z,40.47
2022-12-04T20:59:18.945Z,40.25
2022-12-04T21:01:47.519Z,46.75
2022-12-04T21:04:18.137Z,44.75
2022-12-04T21:06:47.254Z,41.00
2022-12-04T21:09:20.864Z,44.23
2022-12-04T21:11:51.479Z,39.13
2022-12-04T21:14:44.130Z,43.60
2022-12-04T21:17:17.124Z,44.47
2022-12-04T21:19:50.637Z,40.58
2022-12-04T21:22:19.713Z,43.97
2022-12-04T21:24:47.312Z,38.42
2022-12-04T21:27:20.753Z,36.05
2022-12-04T21:29:49.726Z,45.75
2022-12-04T21:32:18.057Z,43.85
2022-12-04T21:34:46.002Z,43.83
2022-12-04T21:37:13.775Z,40.97
2022-12-04T21:39:42.283Z,40.25
2022-12-04T21:42:28.220Z,41.15
2022-12-04T21:44:55.839Z,46.40
2022-12-04T21:47:23.541Z,39.33
2022-12-04T21:49:51.250Z,41.17
2022-12-04T21:52:19.646Z,49.67
2022-12-04T21:54:53.945Z,43.80
2022-12-04T21:57:22.950Z,43.70
2022-12-04T21:59:53.311Z,41.47
2022-12-04T22:02:21.608Z,42.55
2022-12-04T22:04:49.314Z,36.08
2022-12-04T22:07:17.281Z,46.00
2022-12-04T22:09:44.965Z,39.97
2022-12-04T22:12:41.366Z,43.23
2022-12-04T22:15:00.303Z,40.95
2022-12-04T22:17:30.255Z,48.67
2022-12-04T22:19:57.923Z,45.58
2022-12-04T22:22:25.703Z,45.33
2022-12-04T22:24:53.128Z,44.37
2022-12-04T22:27:20.573Z,42.75
2022-12-04T22:29:50.958Z,42.97
2022-12-04T22:32:19.727Z,43.75
2022-12-04T22:34:50.394Z,48.35
2022-12-04T22:37:18.211Z,53.37
2022-12-04T22:39:45.643Z,44.45
2022-12-04T22:42:13.161Z,44.42
2022-12-04T22:44:40.700Z,49.92
2022-12-04T22:47:08.315Z,42.67
2022-12-04T22:49:36.068Z,47.17
2022-12-04T22:52:03.697Z,46.97
2022-12-04T22:54:31.206Z,39.97
2022-12-04T22:56:58.871Z,44.50
2022-12-04T22:59:26.362Z,44.10
2022-12-04T23:01:53.856Z,53.33
2022-12-04T23:04:21.302Z,48.88
2022-12-04T23:06:48.786Z,46.28
2022-12-04T23:09:17.889Z,44.85
2022-12-04T23:11:45.751Z,43.72
2022-12-04T23:14:15.708Z,48.13
2022-12-04T23:16:43.735Z,42.13
2022-12-04T23:19:16.745Z,47.88
2022-12-04T23:21:45.351Z,46.42
2022-12-04T23:24:13.720Z,42.55
2022-12-04T23:26:44.112Z,44.67
2022-12-04T23:29:37.009Z,41.25
2022-12-04T23:32:00.304Z,46.65
2022-12-04T23:34:28.078Z,38.10
2022-12-04T23:36:55.572Z,41.58
2022-12-04T23:39:23.182Z,49.23
2022-12-04T23:41:50.839Z,45.92
2022-12-04T23:44:18.360Z,46.10
2022-12-04T23:46:46.004Z,43.90
2022-12-04T23:49:13.628Z,40.50
2022-12-04T23:51:41.165Z,46.33
2022-12-04T23:54:08.797Z,44.53
2022-12-04T23:56:36.444Z,45.35
2022-12-04T23:59:04.189Z,46.05
